Time;durP1;ratioP1;P1;durP2;ratioP2;P2;SDS_P1;SDS_P2;PMS_P1;PMS_P2;Temp;Humidity;BMP_temperature;BMP_pressure;BME280_temperature;BME280_humidity;BME280_pressure;Samples;Min_cycle;Max_cycle;Signal;HPM_P1;HPM_P2
2023/06/09 00:02:21;;;;;;;5.78;2.45;;;;;;;22.59;74.84;97706.37;4425165;32;20074;-81
2023/06/09 00:04:48;;;;;;;7.43;2.62;;;;;;;22.23;76.31;97702.88;4425494;32;20113;-80
2023/06/09 00:07:16;;;;;;;10.90;2.78;;;;;;;22.05;77.33;97702.78;4425393;32;20112;-80
2023/06/09 00:09:44;;;;;;;10.65;3.17;;;;;;;22.01;77.65;97693.56;4424666;32;20086;-81
2023/06/09 00:12:12;;;;;;;9.00;2.75;;;;;;;21.76;79.10;97691.56;4425466;32;20120;-80
2023/06/09 00:14:40;;;;;;;6.93;2.87;;;;;;;21.70;79.38;97684.28;4425351;32;20098;-80
2023/06/09 00:17:09;;;;;;;7.85;2.85;;;;;;;21.49;80.84;97676.63;4424972;32;20111;-81
2023/06/09 00:19:37;;;;;;;8.18;3.15;;;;;;;21.29;82.71;97676.66;4425208;32;20104;-80
2023/06/09 00:22:05;;;;;;;11.57;3.75;;;;;;;21.30;83.09;97682.75;4425121;32;20159;-80
2023/06/09 00:24:32;;;;;;;10.88;3.47;;;;;;;21.60;81.56;97682.53;4424830;32;20416;-81
2023/06/09 00:26:59;;;;;;;9.13;3.20;;;;;;;21.36;83.75;97688.22;4425130;32;20403;-80
2023/06/09 00:29:26;;;;;;;8.88;3.47;;;;;;;21.61;82.15;97686.78;4424326;32;20403;-81
2023/06/09 00:31:52;;;;;;;7.95;3.28;;;;;;;22.05;79.93;97697.53;4425006;32;20561;-81
2023/06/09 00:34:19;;;;;;;7.30;3.15;;;;;;;21.73;81.01;97684.00;4425244;32;20161;-80
2023/06/09 00:36:46;;;;;;;9.68;3.78;;;;;;;21.89;81.20;97694.69;4425154;32;20097;-80
2023/06/09 00:39:13;;;;;;;10.45;4.12;;;;;;;21.57;82.97;97693.28;4424692;32;20085;-81
2023/06/09 00:41:41;;;;;;;12.35;3.85;;;;;;;21.55;82.92;97686.53;4425117;32;20497;-80
2023/06/09 00:44:08;;;;;;;9.45;3.78;;;;;;;21.27;85.88;97688.28;4424783;32;20441;-81
2023/06/09 00:46:36;;;;;;;8.82;3.67;;;;;;;21.70;83.92;97690.38;4424990;32;20169;-80
2023/06/09 00:49:03;;;;;;;8.18;3.25;;;;;;;21.86;81.74;97692.37;4411330;32;20094;-81
2023/06/09 00:51:33;;;;;;;11.48;3.80;;;;;;;21.78;83.01;97692.25;4424585;32;20077;-81
2023/06/09 00:53:59;;;;;;;8.32;3.83;;;;;;;21.91;82.12;97687.53;4411192;32;20381;-80
2023/06/09 00:56:29;;;;;;;9.70;3.70;;;;;;;22.38;79.27;97687.41;4411283;32;20110;-80
2023/06/09 00:58:56;;;;;;;9.85;3.80;;;;;;;22.49;77.69;97695.09;4410993;32;20094;-81
2023/06/09 01:01:23;;;;;;;10.02;4.03;;;;;;;22.48;77.48;97691.66;4424793;32;20159;-80
2023/06/09 01:03:50;;;;;;;8.98;4.00;;;;;;;22.33;79.23;97689.66;4411324;32;20163;-81
2023/06/09 01:06:38;;;;;;;11.32;4.00;;;;;;;22.49;78.55;97689.84;4424560;32;20094;-81
2023/06/09 01:09:25;;;;;;;9.02;3.78;;;;;;;22.56;77.70;97683.03;4410966;32;20101;-81
2023/06/09 01:12:30;;;;;;;9.10;4.27;;;;;;;22.73;76.94;97676.91;4411091;32;20377;-81
2023/06/09 01:15:08;;;;;;;8.65;3.55;;;;;;;23.03;75.04;97675.72;4424883;32;20522;-81
2023/06/09 01:17:36;;;;;;;9.32;3.90;;;;;;;21.76;82.04;97675.81;4424876;32;20136;-80
2023/06/09 01:20:04;;;;;;;9.85;3.67;;;;;;;21.41;83.83;97672.06;4424187;32;20148;-81
2023/06/09 01:22:51;;;;;;;8.98;3.87;;;;;;;22.15;80.63;97671.25;4424878;32;20073;-81
2023/06/09 01:25:45;;;;;;;10.52;3.83;;;;;;;22.53;78.19;97670.97;4410943;32;20129;-81
2023/06/09 01:28:20;;;;;;;8.23;3.47;;;;;;;22.64;77.83;97675.19;4410705;32;20113;-81
2023/06/09 01:30:49;;;;;;;9.68;3.67;;;;;;;22.72;76.24;97674.44;4411100;32;20153;-81
2023/06/09 01:33:18;;;;;;;9.60;3.80;;;;;;;22.62;77.27;97679.78;4410633;32;20074;-81
2023/06/09 01:35:46;;;;;;;10.48;3.70;;;;;;;23.14;74.58;97669.41;4424661;32;20089;-81
2023/06/09 01:38:14;;;;;;;8.88;3.70;;;;;;;22.82;75.67;97669.94;4410949;32;20124;-81
2023/06/09 01:40:42;;;;;;;8.90;3.85;;;;;;;22.94;75.62;97663.47;4410471;32;20147;-81
2023/06/09 01:43:09;;;;;;;9.52;3.97;;;;;;;23.18;73.30;97662.00;4426535;32;20086;-81
2023/06/09 01:45:36;;;;;;;10.00;3.90;;;;;;;23.03;73.11;97656.50;4412749;32;20093;-81
2023/06/09 01:48:10;;;;;;;10.30;3.72;;;;;;;23.25;72.13;97666.50;4426141;32;20117;-82
2023/06/09 01:50:54;;;;;;;9.57;3.55;;;;;;;22.95;73.52;97656.41;4426497;32;20451;-81
2023/06/09 01:53:29;;;;;;;8.00;3.60;;;;;;;23.25;72.93;97658.63;4412550;32;20425;-81
2023/06/09 01:56:02;;;;;;;8.50;3.60;;;;;;;23.82;69.29;97669.53;4426076;32;20150;-81
2023/06/09 01:58:32;;;;;;;12.15;4.50;;;;;;;23.49;69.53;97670.28;4412728;32;20164;-81
2023/06/09 02:01:00;;;;;;;12.13;3.95;;;;;;;23.62;69.25;97671.56;4426196;32;20086;-81
2023/06/09 02:03:29;;;;;;;9.13;3.83;;;;;;;23.44;69.72;97670.75;4412259;32;20188;-81
2023/06/09 02:05:58;;;;;;;10.63;4.50;;;;;;;22.64;72.07;97662.03;4412437;32;20109;-81
2023/06/09 02:08:25;;;;;;;13.05;4.03;;;;;;;22.72;72.32;97653.41;4412194;32;20127;-82
2023/06/09 02:10:52;;;;;;;11.05;4.28;;;;;;;22.64;72.08;97651.53;4412208;32;20072;-81
2023/06/09 02:13:19;;;;;;;12.13;4.47;;;;;;;22.42;72.59;97662.47;4426195;32;20097;-81
2023/06/09 02:15:47;;;;;;;13.90;4.60;;;;;;;21.99;74.64;97660.50;4425939;32;20113;-81
2023/06/09 02:18:20;;;;;;;10.55;4.25;;;;;;;22.44;72.99;97660.56;4426139;32;20493;-81
2023/06/09 02:20:48;;;;;;;12.50;4.35;;;;;;;22.29;73.31;97657.59;4426012;32;20094;-81
2023/06/09 02:23:21;;;;;;;11.23;4.40;;;;;;;22.45;72.06;97660.41;4425651;32;20082;-81
2023/06/09 02:25:48;;;;;;;9.40;3.87;;;;;;;22.75;70.78;97658.34;4425732;32;20116;-81
2023/06/09 02:28:16;;;;;;;11.35;4.00;;;;;;;22.69;70.90;97665.06;4425820;32;20106;-81
2023/06/09 02:30:44;;;;;;;10.52;4.03;;;;;;;22.57;71.17;97662.81;4425529;32;20098;-81
2023/06/09 02:33:14;;;;;;;9.70;4.22;;;;;;;22.88;70.10;97668.53;4425927;32;20100;-81
2023/06/09 02:35:41;;;;;;;11.12;3.75;;;;;;;22.68;70.45;97663.41;4426076;32;20089;-81
2023/06/09 02:38:08;;;;;;;9.85;4.03;;;;;;;23.06;68.64;97659.63;4425596;32;20112;-81
2023/06/09 02:40:35;;;;;;;9.50;3.53;;;;;;;22.66;70.08;97660.13;4425735;32;20494;-81
2023/06/09 02:43:02;;;;;;;61.67;5.03;;;;;;;23.02;68.14;97660.09;4425928;32;20102;-81
2023/06/09 02:45:29;;;;;;;41.42;4.60;;;;;;;22.82;67.94;97669.94;4425635;32;20400;-81
2023/06/09 02:47:56;;;;;;;135.15;6.78;;;;;;;22.41;69.69;97669.53;4425825;32;20430;-81
2023/06/09 02:50:24;;;;;;;10.90;4.05;;;;;;;22.40;69.42;97673.16;4425279;32;20559;-82
2023/06/09 02:52:51;;;;;;;10.30;3.12;;;;;;;22.41;69.34;97673.97;4425473;32;20070;-81
2023/06/09 02:55:21;;;;;;;61.20;5.00;;;;;;;22.81;67.53;97671.75;4425814;32;20160;-81
2023/06/09 02:57:48;;;;;;;12.73;3.60;;;;;;;23.14;65.71;97665.94;4425638;32;20085;-82
2023/06/09 03:00:16;;;;;;;9.93;4.00;;;;;;;23.08;66.22;97664.75;4425559;32;20441;-81
2023/06/09 03:02:45;;;;;;;9.52;3.70;;;;;;;22.86;67.21;97663.41;4425824;32;20462;-81
2023/06/09 03:05:12;;;;;;;12.27;3.50;;;;;;;22.73;68.18;97665.56;4425608;32;20103;-81
2023/06/09 03:07:39;;;;;;;9.25;4.12;;;;;;;22.66;68.38;97661.91;4425682;32;20462;-81
2023/06/09 03:10:07;;;;;;;10.07;4.62;;;;;;;22.66;68.42;97670.63;4425395;32;20128;-81
2023/06/09 03:12:34;;;;;;;12.77;4.82;;;;;;;22.77;68.54;97672.19;4425319;32;20173;-81
2023/06/09 03:15:01;;;;;;;11.85;4.80;;;;;;;22.43;70.26;97682.53;4425734;32;20090;-81
2023/06/09 03:17:28;;;;;;;15.05;4.60;;;;;;;22.68;69.45;97679.19;4425742;32;20142;-81
2023/06/09 03:19:56;;;;;;;11.35;4.75;;;;;;;22.29;71.37;97669.91;4425359;32;20461;-82
2023/06/09 03:22:23;;;;;;;17.02;5.40;;;;;;;22.41;71.08;97680.06;4425777;32;20146;-81
2023/06/09 03:24:51;;;;;;;19.12;4.87;;;;;;;22.74;70.01;97677.75;4425757;32;20444;-81
2023/06/09 03:27:18;;;;;;;16.75;4.32;;;;;;;22.26;71.71;97681.56;4425351;32;20130;-81
2023/06/09 03:29:45;;;;;;;12.13;4.35;;;;;;;22.34;72.01;97688.72;4425386;32;20098;-81
2023/06/09 03:32:12;;;;;;;12.68;5.35;;;;;;;22.43;72.40;97683.34;4425620;32;20078;-81
2023/06/09 03:34:40;;;;;;;12.00;5.43;;;;;;;22.56;72.28;97690.09;4425311;32;20448;-81
2023/06/09 03:37:10;;;;;;;22.20;5.90;;;;;;;22.33;73.52;97684.41;4411946;32;20109;-81
2023/06/09 03:39:37;;;;;;;12.75;5.68;;;;;;;22.69;72.28;97683.47;4425294;32;21158;-82
2023/06/09 03:42:04;;;;;;;12.07;5.57;;;;;;;22.60;73.03;97687.00;4425532;32;20146;-81
2023/06/09 03:44:31;;;;;;;12.20;5.32;;;;;;;22.58;73.62;97696.84;4425368;32;20133;-81
2023/06/09 03:46:58;;;;;;;11.07;5.37;;;;;;;22.40;74.62;97691.56;4425129;32;20098;-82
2023/06/09 03:49:25;;;;;;;11.60;5.60;;;;;;;23.12;71.68;97694.22;4425222;32;20097;-81
2023/06/09 03:51:52;;;;;;;12.60;5.43;;;;;;;23.04;72.57;97697.59;4425352;32;20177;-81
2023/06/09 03:54:19;;;;;;;11.65;5.28;;;;;;;23.04;72.53;97701.06;4425189;32;20137;-81
2023/06/09 03:56:46;;;;;;;12.27;5.97;;;;;;;22.92;72.87;97709.34;4425527;32;20589;-81
2023/06/09 03:59:13;;;;;;;10.65;5.18;;;;;;;22.94;73.45;97710.00;4425381;32;20102;-81
2023/06/09 04:01:40;;;;;;;10.70;5.37;;;;;;;22.94;73.24;97716.09;4425079;32;20163;-81
2023/06/09 04:04:07;;;;;;;11.57;5.28;;;;;;;23.50;70.84;97725.44;4424419;32;20441;-81
2023/06/09 04:06:35;;;;;;;16.12;5.68;;;;;;;23.26;72.05;97723.44;4425460;32;20144;-81
2023/06/09 04:09:03;;;;;;;11.70;5.78;;;;;;;23.20;72.17;97728.50;4425201;32;20181;-81
2023/06/09 04:11:32;;;;;;;13.07;6.40;;;;;;;23.01;74.00;97726.84;4425371;32;20803;-81
2023/06/09 04:13:59;;;;;;;12.55;6.53;;;;;;;23.11;74.71;97724.16;4425773;32;20098;-78
2023/06/09 04:16:26;;;;;;;12.40;6.22;;;;;;;22.35;78.49;97733.25;4425066;32;20097;-78
2023/06/09 04:18:53;;;;;;;11.50;6.40;;;;;;;23.18;75.47;97730.44;4425242;32;20151;-77
2023/06/09 04:21:20;;;;;;;12.02;6.50;;;;;;;23.95;71.94;97727.88;4425205;32;20104;-77
2023/06/09 04:23:47;;;;;;;13.98;6.28;;;;;;;23.69;73.50;97732.31;4426199;32;20109;-80
2023/06/09 04:26:14;;;;;;;11.80;5.78;;;;;;;24.03;72.12;97740.28;4425361;32;20368;-79
2023/06/09 04:28:41;;;;;;;15.68;5.97;;;;;;;24.53;68.27;97740.31;4424892;32;20510;-81
2023/06/09 04:31:09;;;;;;;14.80;5.93;;;;;;;24.27;69.58;97739.53;4425163;32;20108;-81
2023/06/09 04:33:36;;;;;;;12.15;6.00;;;;;;;24.27;70.33;97736.09;4425029;32;20094;-81
2023/06/09 04:36:04;;;;;;;12.60;5.57;;;;;;;24.04;71.68;97738.47;4424802;32;20458;-81
2023/06/09 04:38:34;;;;;;;10.35;5.60;;;;;;;24.49;70.06;97740.78;4424978;32;20369;-81
2023/06/09 04:41:04;;;;;;;10.82;5.60;;;;;;;24.89;67.42;97741.88;4425021;32;20107;-81
2023/06/09 04:43:33;;;;;;;11.63;5.90;;;;;;;24.80;69.01;97735.75;4424789;32;20510;-81
2023/06/09 04:46:00;;;;;;;16.37;6.10;;;;;;;25.02;68.35;97731.69;4425029;32;20112;-81
2023/06/09 04:48:30;;;;;;;11.20;5.40;;;;;;;25.31;66.33;97733.84;4424864;32;20086;-81
2023/06/09 04:51:01;;;;;;;11.48;5.60;;;;;;;24.71;68.24;97737.56;4424636;32;20089;-81
2023/06/09 04:53:29;;;;;;;11.45;5.60;;;;;;;25.44;65.97;97730.69;4425163;32;20176;-81
2023/06/09 04:55:56;;;;;;;10.60;5.18;;;;;;;25.68;63.90;97738.59;4424905;32;20162;-82
2023/06/09 04:58:23;;;;;;;12.45;5.45;;;;;;;25.79;63.22;97737.44;4424547;32;20480;-81
2023/06/09 05:00:50;;;;;;;10.23;5.60;;;;;;;25.55;63.61;97731.19;4424856;32;20093;-81
2023/06/09 05:03:18;;;;;;;12.10;5.90;;;;;;;25.39;65.10;97744.37;4424909;32;20141;-81
2023/06/09 05:05:45;;;;;;;11.02;5.20;;;;;;;25.40;64.39;97743.41;4424576;32;20090;-81
2023/06/09 05:08:13;;;;;;;12.27;4.87;;;;;;;25.32;64.36;97738.97;4424698;32;20082;-81
2023/06/09 05:10:40;;;;;;;12.43;5.22;;;;;;;24.94;66.66;97752.75;4424194;32;20101;-81
2023/06/09 05:13:08;;;;;;;10.98;5.07;;;;;;;24.68;68.17;97751.06;4424722;32;20245;-81
2023/06/09 05:15:35;;;;;;;11.65;5.20;;;;;;;25.06;67.70;97760.22;4424440;32;20116;-81
2023/06/09 05:18:03;;;;;;;13.07;4.97;;;;;;;24.65;68.83;97751.38;4410628;32;20189;-81
2023/06/09 05:20:30;;;;;;;13.05;5.32;;;;;;;24.71;68.60;97763.13;4424463;32;20433;-81
2023/06/09 05:22:57;;;;;;;11.25;5.30;;;;;;;24.67;69.13;97757.34;4424760;32;20097;-81
2023/06/09 05:25:25;;;;;;;10.50;5.12;;;;;;;24.70;70.00;97753.56;4424280;32;20090;-81
2023/06/09 05:27:52;;;;;;;12.65;5.82;;;;;;;24.16;71.53;97759.09;4424678;32;20136;-81
2023/06/09 05:30:19;;;;;;;11.60;5.68;;;;;;;24.42;70.87;97761.69;4424190;32;20408;-81
2023/06/09 05:32:46;;;;;;;10.45;5.43;;;;;;;24.41;70.89;97760.03;4424066;32;20112;-81
2023/06/09 05:35:13;;;;;;;16.37;6.03;;;;;;;24.38;71.12;97763.00;4424509;32;20085;-81
2023/06/09 05:37:52;;;;;;;11.82;5.28;;;;;;;23.51;74.88;97749.97;4424479;32;20086;-81
2023/06/09 05:40:20;;;;;;;11.55;4.90;;;;;;;23.94;73.17;97757.84;4424035;32;20108;-80
2023/06/09 05:42:47;;;;;;;9.63;4.87;;;;;;;23.94;73.27;97757.84;4424453;32;20131;-80
2023/06/09 05:45:14;;;;;;;9.60;4.80;;;;;;;23.59;75.70;97760.56;4424353;32;20346;-81
2023/06/09 05:47:41;;;;;;;11.75;4.20;;;;;;;23.61;74.74;97750.72;4423906;32;20164;-80
2023/06/09 05:50:08;;;;;;;9.38;4.65;;;;;;;22.92;77.72;97749.62;4423983;32;20082;-81
2023/06/09 05:52:36;;;;;;;9.18;4.37;;;;;;;24.22;72.93;97755.81;4424241;32;20430;-82
2023/06/09 05:55:04;;;;;;;10.55;4.93;;;;;;;24.37;72.57;97758.72;4424032;32;20158;-82
2023/06/09 05:57:31;;;;;;;10.27;5.20;;;;;;;24.36;71.51;97756.25;4424050;32;20120;-82
2023/06/09 05:59:58;;;;;;;13.25;4.85;;;;;;;24.44;70.58;97753.63;4423619;32;20585;-82
2023/06/09 06:02:25;;;;;;;9.32;4.60;;;;;;;24.61;69.38;97751.87;4424166;32;20116;-82
2023/06/09 06:04:52;;;;;;;10.23;5.05;;;;;;;23.80;71.93;97739.97;4423920;32;20163;-82
2023/06/09 06:07:20;;;;;;;12.18;5.05;;;;;;;24.70;68.76;97741.19;4423612;32;20151;-82
2023/06/09 06:09:47;;;;;;;10.65;5.18;;;;;;;25.58;65.96;97738.75;4423448;32;20107;-82
2023/06/09 06:12:14;;;;;;;12.27;5.55;;;;;;;25.62;65.87;97736.59;4410135;32;20098;-82
2023/06/09 06:14:41;;;;;;;13.95;6.65;;;;;;;25.68;65.54;97741.22;4423429;32;20112;-82
2023/06/09 06:17:08;;;;;;;10.13;5.43;;;;;;;25.25;68.96;97734.50;4423787;32;20096;-82
2023/06/09 06:19:35;;;;;;;12.07;5.50;;;;;;;25.20;68.45;97742.94;4423596;32;20082;-82
2023/06/09 06:22:02;;;;;;;12.13;5.68;;;;;;;25.29;65.83;97749.00;4409518;32;20453;-82
2023/06/09 06:24:29;;;;;;;12.85;5.90;;;;;;;24.65;68.02;97746.09;4423761;32;20169;-82
2023/06/09 06:26:56;;;;;;;11.68;5.47;;;;;;;24.89;67.65;97755.06;4424563;32;20094;-85
2023/06/09 06:29:25;;;;;;;13.43;6.30;;;;;;;24.66;68.70;97750.38;4429393;32;20113;-85
2023/06/09 06:31:52;;;;;;;13.02;6.22;;;;;;;24.57;70.54;97755.84;4427030;32;20368;-84
2023/06/09 06:34:19;;;;;;;12.43;6.03;;;;;;;24.83;69.89;97761.00;4428591;32;20098;-83
2023/06/09 06:36:46;;;;;;;12.27;5.95;;;;;;;24.64;69.47;97760.28;4425648;32;20176;-85
2023/06/09 06:39:13;;;;;;;12.13;5.80;;;;;;;24.43;70.89;97759.87;4425699;32;20425;-82
2023/06/09 06:41:40;;;;;;;11.65;6.05;;;;;;;25.05;67.77;97763.84;4425857;32;20109;-84
2023/06/09 06:44:07;;;;;;;11.73;6.07;;;;;;;24.87;68.78;97763.13;4427330;32;20145;-82
2023/06/09 06:46:34;;;;;;;13.85;6.07;;;;;;;24.67;70.33;97765.25;4431028;32;20168;-82
2023/06/09 06:49:03;;;;;;;11.43;6.43;;;;;;;24.61;70.93;97767.69;4428922;32;20073;-83
2023/06/09 06:51:30;;;;;;;12.32;6.05;;;;;;;24.97;69.23;97768.25;4427000;32;20105;-84
2023/06/09 06:53:56;;;;;;;10.90;5.78;;;;;;;24.93;70.88;97769.59;4428859;32;20106;-83
2023/06/09 06:56:25;;;;;;;10.98;5.68;;;;;;;24.42;71.37;97769.59;4414813;32;20101;-82
2023/06/09 06:59:11;;;;;;;13.93;5.95;;;;;;;25.07;69.47;97766.31;4425440;32;20070;-83
2023/06/09 07:01:39;;;;;;;15.13;6.45;;;;;;;25.33;68.09;97766.19;4440636;32;20111;-82
2023/06/09 07:04:06;;;;;;;11.43;6.20;;;;;;;25.14;69.75;97758.59;4440007;32;20073;-82
2023/06/09 07:06:33;;;;;;;11.35;6.07;;;;;;;25.07;69.15;97756.59;4439886;32;20101;-83
2023/06/09 07:09:00;;;;;;;11.48;5.80;;;;;;;24.93;70.24;97756.38;4433082;32;20152;-83
2023/06/09 07:11:32;;;;;;;11.63;5.72;;;;;;;25.18;68.84;97758.09;4438084;32;20122;-83
2023/06/09 07:13:59;;;;;;;10.70;5.47;;;;;;;25.56;67.80;97759.25;4440292;32;20058;-83
2023/06/09 07:16:26;;;;;;;11.55;5.62;;;;;;;25.44;68.77;97765.03;4435110;32;20583;-81
2023/06/09 07:18:53;;;;;;;11.60;5.68;;;;;;;26.01;66.79;97770.25;4427020;32;20074;-83
2023/06/09 07:21:20;;;;;;;11.80;6.20;;;;;;;26.36;61.41;97766.31;4413120;32;20109;-83
2023/06/09 07:23:46;;;;;;;10.70;5.43;;;;;;;26.09;62.08;97768.41;4426106;32;20408;-83
2023/06/09 07:26:14;;;;;;;11.77;6.12;;;;;;;26.31;61.42;97771.31;4426009;32;20105;-82
2023/06/09 07:28:41;;;;;;;10.07;5.15;;;;;;;26.69;59.23;97774.94;4429715;32;20157;-82
2023/06/09 07:31:08;;;;;;;10.13;5.35;;;;;;;26.59;59.70;97783.13;4429446;32;20192;-83
2023/06/09 07:33:37;;;;;;;12.30;6.10;;;;;;;26.67;59.97;97782.25;4427550;32;20472;-83
2023/06/09 07:36:04;;;;;;;13.07;6.18;;;;;;;24.95;66.47;97775.53;4428888;32;20081;-83
2023/06/09 07:38:31;;;;;;;11.85;6.43;;;;;;;24.28;72.06;97782.53;4429206;32;20157;-83
2023/06/09 07:40:58;;;;;;;11.85;5.80;;;;;;;24.72;71.11;97777.94;4416498;32;20087;-82
2023/06/09 07:43:25;;;;;;;13.90;6.40;;;;;;;23.06;80.87;97783.31;4431301;32;20135;-82
2023/06/09 07:45:52;;;;;;;13.88;6.80;;;;;;;23.28;79.71;97784.66;4432317;32;20086;-83
2023/06/09 07:48:19;;;;;;;13.57;6.37;;;;;;;23.38;79.34;97776.66;4430114;32;20078;-82
2023/06/09 07:50:46;;;;;;;14.65;6.53;;;;;;;23.16;80.86;97780.59;4426317;32;20165;-81
2023/06/09 07:53:27;;;;;;;12.52;5.85;;;;;;;23.22;81.91;97780.00;4427914;32;20116;-82
2023/06/09 07:55:54;;;;;;;13.25;6.75;;;;;;;23.08;82.07;97781.38;4429332;32;20140;-82
2023/06/09 07:58:21;;;;;;;13.30;6.70;;;;;;;23.14;82.68;97792.25;4429951;32;20090;-82
2023/06/09 08:00:50;;;;;;;12.00;6.60;;;;;;;23.21;82.55;97788.06;4428159;32;20357;-82
2023/06/09 08:03:17;;;;;;;11.15;6.00;;;;;;;21.55;92.16;97783.66;4433461;32;20081;-82
2023/06/09 08:05:46;;;;;;;12.85;6.10;;;;;;;21.24;95.23;97794.28;4426562;32;20135;-83
2023/06/09 08:08:16;;;;;;;14.43;5.95;;;;;;;21.36;93.64;97795.81;4401047;32;20157;-83
2023/06/09 08:10:43;;;;;;;11.63;5.97;;;;;;;21.63;92.00;97791.66;4428390;32;20102;-83
2023/06/09 08:13:14;;;;;;;11.35;6.25;;;;;;;22.46;88.36;97787.41;4427748;32;20112;-85
2023/06/09 08:15:44;;;;;;;12.07;5.62;;;;;;;22.94;85.45;97795.03;4436785;32;20098;-84
2023/06/09 08:18:11;;;;;;;10.93;5.45;;;;;;;22.52;86.17;97790.25;4437461;32;20090;-83
2023/06/09 08:20:40;;;;;;;10.40;5.28;;;;;;;23.48;81.58;97787.12;4435736;32;20121;-83
2023/06/09 08:23:10;;;;;;;12.82;5.60;;;;;;;23.63;79.86;97789.09;4437354;32;20073;-83
2023/06/09 08:25:37;;;;;;;11.48;5.90;;;;;;;23.37;79.98;97786.38;4437089;32;20055;-83
2023/06/09 08:28:08;;;;;;;10.48;5.78;;;;;;;23.09;82.51;97788.28;4435839;32;20080;-84
2023/06/09 08:30:35;;;;;;;10.27;5.03;;;;;;;23.89;79.10;97783.00;4437204;32;20110;-83
2023/06/09 08:33:01;;;;;;;11.93;5.60;;;;;;;24.99;72.74;97785.59;4432106;32;20076;-83
2023/06/09 08:35:31;;;;;;;9.68;5.00;;;;;;;25.04;71.33;97793.88;4431349;32;20073;-84
2023/06/09 08:37:59;;;;;;;9.57;4.75;;;;;;;25.38;68.94;97791.09;4435124;32;20070;-83
2023/06/09 08:40:46;;;;;;;9.05;4.87;;;;;;;25.07;67.70;97798.00;4439715;32;20069;-83
2023/06/09 08:43:13;;;;;;;;;;;;;;;25.66;64.66;97802.16;4436911;32;20106;-84
2023/06/09 08:45:43;;;;;;;11.68;6.22;;;;;;;26.41;61.07;97807.19;4435946;32;19994;-83
2023/06/09 08:48:13;;;;;;;11.55;5.62;;;;;;;26.55;62.65;97802.97;4426652;32;20116;-83
2023/06/09 08:50:41;;;;;;;10.60;5.05;;;;;;;26.08;64.12;97797.66;4427642;32;20157;-83
2023/06/09 08:53:09;;;;;;;10.68;5.37;;;;;;;26.19;63.46;97799.94;4412118;32;20110;-83
2023/06/09 08:55:37;;;;;;;10.10;4.70;;;;;;;26.06;63.29;97792.56;4414674;32;20093;-83
2023/06/09 08:58:04;;;;;;;10.32;4.50;;;;;;;25.85;63.90;97801.03;4414422;32;20134;-83
2023/06/09 09:00:31;;;;;;;9.13;4.40;;;;;;;25.67;64.40;97803.00;4426671;32;20098;-83
2023/06/09 09:02:59;;;;;;;10.57;4.95;;;;;;;25.63;63.15;97805.16;4430273;32;20100;-83
2023/06/09 09:05:26;;;;;;;8.18;3.97;;;;;;;25.99;63.20;97796.84;4425294;32;20085;-83
2023/06/09 09:07:53;;;;;;;8.88;4.20;;;;;;;25.79;62.33;97796.41;4425271;32;20497;-84
2023/06/09 09:10:20;;;;;;;9.52;4.60;;;;;;;26.08;62.22;97795.03;4424008;32;20754;-83
2023/06/09 09:12:51;;;;;;;9.65;4.40;;;;;;;25.81;63.86;97798.87;4424723;32;20472;-83
2023/06/09 09:15:18;;;;;;;10.40;4.12;;;;;;;26.33;61.06;97801.88;4424814;32;20085;-83
2023/06/09 09:17:49;;;;;;;9.20;4.35;;;;;;;26.37;61.21;97792.66;4424679;32;20536;-83
2023/06/09 09:20:16;;;;;;;9.25;4.55;;;;;;;26.56;61.27;97794.03;4426652;32;20088;-82
2023/06/09 09:22:50;;;;;;;8.52;4.00;;;;;;;26.93;59.82;97792.53;4426840;32;20142;-84
2023/06/09 09:25:30;;;;;;;7.80;3.83;;;;;;;26.97;59.54;97783.25;4425602;32;20104;-83
2023/06/09 09:28:01;;;;;;;7.80;3.80;;;;;;;26.78;57.83;97777.38;4424671;32;20112;-85
2023/06/09 09:30:51;;;;;;;8.75;3.92;;;;;;;26.53;58.81;97774.06;4424210;32;20125;-84
2023/06/09 09:33:22;;;;;;;8.25;4.10;;;;;;;27.39;57.80;97773.03;4410818;32;20133;-84
2023/06/09 09:35:59;;;;;;;9.00;4.28;;;;;;;27.60;57.91;97782.13;4425268;32;20440;-85
2023/06/09 09:38:28;;;;;;;8.55;4.10;;;;;;;26.97;59.30;97777.94;4424699;32;20078;-84
2023/06/09 09:40:58;;;;;;;8.15;4.00;;;;;;;25.98;62.08;97778.53;4411373;32;20105;-85
2023/06/09 09:43:26;;;;;;;8.90;4.30;;;;;;;27.04;58.94;97779.75;4424805;32;20483;-85
2023/06/09 09:45:54;;;;;;;9.70;4.22;;;;;;;27.76;56.70;97778.53;4424522;32;20104;-85
2023/06/09 09:48:24;;;;;;;10.10;4.40;;;;;;;27.29;56.95;97771.62;4424356;32;20149;-85
2023/06/09 09:50:52;;;;;;;9.70;4.45;;;;;;;27.03;58.93;97779.94;4424750;32;20121;-84
2023/06/09 09:53:23;;;;;;;9.68;4.70;;;;;;;27.08;58.89;97767.78;4424032;32;20125;-85
2023/06/09 09:55:53;;;;;;;10.40;4.30;;;;;;;26.85;59.97;97771.41;4425243;32;20085;-84
2023/06/09 09:58:27;;;;;;;8.77;4.32;;;;;;;26.86;59.58;97773.88;4423883;32;20409;-86
2023/06/09 10:00:57;;;;;;;9.30;4.62;;;;;;;26.76;59.26;97766.16;4424105;32;20114;-85
2023/06/09 10:03:25;;;;;;;8.63;4.20;;;;;;;26.77;60.73;97769.63;4425483;32;20090;-86
2023/06/09 10:05:55;;;;;;;11.38;4.50;;;;;;;25.09;69.02;97767.84;4426285;32;20499;-86
2023/06/09 10:08:26;;;;;;;10.35;4.22;;;;;;;26.31;65.22;97771.31;4426044;32;20138;-85
2023/06/09 10:10:56;;;;;;;10.80;4.90;;;;;;;26.00;62.18;97769.44;4412659;32;20110;-86
2023/06/09 10:13:26;;;;;;;9.52;4.35;;;;;;;26.89;60.84;97765.56;4426115;32;20116;-86
2023/06/09 10:15:53;;;;;;;11.52;4.43;;;;;;;26.87;59.93;97764.09;4426083;32;20398;-85
2023/06/09 10:18:21;;;;;;;9.20;4.20;;;;;;;27.24;58.78;97750.97;4426143;32;20504;-85
2023/06/09 10:20:51;;;;;;;9.50;4.60;;;;;;;27.10;59.78;97759.66;4425885;32;20098;-85
2023/06/09 10:23:18;;;;;;;9.02;4.12;;;;;;;27.94;58.08;97757.78;4426169;32;20121;-86
2023/06/09 10:25:49;;;;;;;6.78;3.30;;;;;;;28.24;55.18;97766.56;4426204;32;20066;-86
2023/06/09 10:28:20;;;;;;;7.85;3.40;;;;;;;27.79;54.38;97764.91;4425825;32;20094;-87
2023/06/09 10:30:48;;;;;;;8.32;3.35;;;;;;;27.78;54.66;97764.09;4426523;32;20373;-86
2023/06/09 10:33:27;;;;;;;7.53;3.25;;;;;;;28.07;53.26;97760.63;4426267;32;20082;-86
2023/06/09 10:35:58;;;;;;;9.20;3.70;;;;;;;27.61;53.12;97755.44;4426785;32;20428;-87
2023/06/09 10:38:31;;;;;;;7.53;3.10;;;;;;;28.18;53.89;97760.19;4426267;32;20444;-86
2023/06/09 10:41:15;;;;;;;6.72;3.22;;;;;;;27.98;52.38;97755.63;4425678;32;20157;-87
2023/06/09 10:44:50;;;;;;;6.97;3.22;;;;;;;28.02;54.06;97754.22;4412760;32;20101;-88
2023/06/09 10:47:45;;;;;;;9.32;3.10;;;;;;;29.42;51.52;97749.50;4325761;32;20082;-87
2023/06/09 10:50:23;;;;;;;7.90;3.55;;;;;;;28.94;51.96;97758.09;4427128;32;20108;-87
2023/06/09 10:52:54;;;;;;;6.97;3.00;;;;;;;29.33;50.48;97749.66;4426488;32;20134;-86
2023/06/09 10:55:23;;;;;;;7.03;3.25;;;;;;;30.19;48.23;97742.31;4426484;32;20116;-86
2023/06/09 10:57:51;;;;;;;5.72;2.40;;;;;;;29.67;46.86;97745.47;4425956;32;20082;-82
2023/06/09 11:00:19;;;;;;;5.47;2.50;;;;;;;30.43;44.00;97738.34;4425511;32;20074;-82
2023/06/09 11:02:47;;;;;;;4.80;2.30;;;;;;;30.09;43.98;97736.53;4425469;32;20435;-84
2023/06/09 11:05:15;;;;;;;5.75;2.85;;;;;;;30.49;44.52;97742.84;4425702;32;20098;-84
2023/06/09 11:07:46;;;;;;;5.53;2.67;;;;;;;31.26;43.83;97744.34;4425810;32;20120;-83
2023/06/09 11:10:13;;;;;;;4.75;2.30;;;;;;;31.51;41.58;97741.03;4424996;32;20121;-84
2023/06/09 11:12:42;;;;;;;5.43;2.15;;;;;;;32.63;40.34;97729.28;4425414;32;20136;-83
2023/06/09 11:15:12;;;;;;;4.85;2.55;;;;;;;32.64;38.96;97728.25;4425706;32;20172;-85
2023/06/09 11:17:40;;;;;;;5.40;2.60;;;;;;;31.77;41.95;97730.37;4425549;32;20085;-85
2023/06/09 11:20:11;;;;;;;4.90;2.37;;;;;;;30.93;41.65;97730.09;4425528;32;20152;-84
2023/06/09 11:22:42;;;;;;;5.20;2.70;;;;;;;31.04;41.60;97732.97;4425495;32;20169;-84
2023/06/09 11:25:18;;;;;;;4.53;2.50;;;;;;;31.29;41.18;97727.91;4425785;32;20098;-84
2023/06/09 11:27:50;;;;;;;5.82;2.50;;;;;;;31.12;41.51;97725.81;4425652;32;20085;-84
2023/06/09 11:30:18;;;;;;;5.93;2.53;;;;;;;31.07;41.64;97721.13;4411499;32;20442;-84
2023/06/09 11:32:47;;;;;;;6.35;2.50;;;;;;;31.98;41.37;97721.28;4425778;32;20152;-83
2023/06/09 11:35:30;;;;;;;4.80;2.40;;;;;;;30.58;43.12;97719.53;4425584;32;20346;-83
2023/06/09 11:38:09;;;;;;;6.20;3.00;;;;;;;28.44;49.33;97706.66;4425637;32;20443;-83
2023/06/09 11:40:38;;;;;;;5.68;2.80;;;;;;;28.44;47.76;97701.34;4413012;32;20444;-84